createdAt,value
2023-11-25T00:01:10.465Z,0.20
2023-11-25T00:03:40.011Z,0.25
2023-11-25T00:06:08.380Z,0.30
2023-11-25T00:08:36.543Z,0.32
2023-11-25T00:11:14.616Z,0.20
2023-11-25T00:13:50.034Z,0.45
2023-11-25T00:16:18.390Z,0.43
2023-11-25T00:18:46.518Z,0.40
2023-11-25T00:21:14.602Z,0.52
2023-11-25T00:23:42.809Z,0.65
2023-11-25T00:26:12.382Z,1.12
2023-11-25T00:28:45.793Z,1.10
2023-11-25T00:31:15.759Z,0.60
2023-11-25T00:33:43.916Z,0.57
2023-11-25T00:36:12.601Z,0.50
2023-11-25T00:38:40.920Z,0.60
2023-11-25T00:41:09.617Z,0.50
2023-11-25T00:43:39.515Z,0.45
2023-11-25T00:46:08.751Z,0.60
2023-11-25T00:48:37.022Z,1.10
2023-11-25T00:51:05.703Z,0.65
2023-11-25T00:53:34.160Z,0.80
2023-11-25T00:56:02.331Z,0.90
2023-11-25T00:58:40.955Z,0.75
2023-11-25T01:01:10.167Z,0.40
2023-11-25T01:03:39.435Z,0.93
2023-11-25T01:06:09.742Z,0.98
2023-11-25T01:08:38.630Z,0.85
2023-11-25T01:11:07.519Z,0.60
2023-11-25T01:13:35.533Z,0.82
2023-11-25T01:16:06.381Z,0.47
2023-11-25T01:18:47.191Z,0.37
2023-11-25T01:21:16.862Z,0.62
2023-11-25T01:23:46.001Z,1.00
2023-11-25T01:26:16.062Z,0.50
2023-11-25T01:29:00.545Z,1.00
2023-11-25T01:31:49.845Z,0.52
2023-11-25T01:34:18.409Z,0.82
2023-11-25T01:36:46.481Z,1.00
2023-11-25T01:39:35.259Z,0.60
2023-11-25T01:42:04.264Z,1.20
2023-11-25T01:44:33.504Z,1.52
2023-11-25T01:47:03.074Z,0.80
2023-11-25T01:49:31.677Z,0.90
2023-11-25T01:51:59.795Z,0.50
2023-11-25T01:54:28.070Z,0.70
2023-11-25T01:56:59.823Z,0.73
2023-11-25T01:59:51.169Z,0.55
2023-11-25T02:02:25.018Z,0.50
2023-11-25T02:04:53.900Z,0.52
2023-11-25T02:07:23.565Z,0.62
2023-11-25T02:09:52.040Z,0.30
2023-11-25T02:12:20.386Z,0.37
2023-11-25T02:14:54.569Z,0.40
2023-11-25T02:17:24.202Z,0.60
2023-11-25T02:19:54.902Z,0.68
2023-11-25T02:22:23.271Z,0.60
2023-11-25T02:24:53.278Z,0.70
2023-11-25T02:27:21.261Z,0.80
2023-11-25T02:29:50.860Z,0.28
2023-11-25T02:32:18.908Z,0.40
2023-11-25T02:34:47.036Z,0.30
2023-11-25T02:37:17.241Z,0.52
2023-11-25T02:39:45.551Z,0.55
2023-11-25T02:42:15.071Z,0.50
2023-11-25T02:44:43.336Z,0.40
2023-11-25T02:47:11.497Z,0.35
2023-11-25T02:49:39.692Z,0.62
2023-11-25T02:52:08.850Z,0.52
2023-11-25T02:54:36.885Z,0.70
2023-11-25T02:57:08.700Z,0.90
2023-11-25T02:59:38.770Z,0.60
2023-11-25T03:02:11.200Z,0.32
2023-11-25T03:04:42.990Z,0.37
2023-11-25T03:07:11.199Z,0.47
2023-11-25T03:09:40.352Z,0.40
2023-11-25T03:12:09.039Z,0.32
2023-11-25T03:14:39.509Z,0.28
2023-11-25T03:17:07.798Z,0.25
2023-11-25T03:19:36.233Z,0.80
2023-11-25T03:22:03.947Z,0.90
2023-11-25T03:24:32.210Z,0.82
2023-11-25T03:27:00.272Z,0.40
2023-11-25T03:29:28.370Z,0.40
2023-11-25T03:31:59.488Z,0.82
2023-11-25T03:34:27.589Z,0.47
2023-11-25T03:36:55.625Z,0.40
2023-11-25T03:39:23.838Z,0.98
2023-11-25T03:41:51.917Z,0.40
2023-11-25T03:44:20.011Z,0.50
2023-11-25T03:46:48.617Z,0.93
2023-11-25T03:49:18.389Z,0.65
2023-11-25T03:51:49.123Z,1.17
2023-11-25T03:54:17.493Z,0.35
2023-11-25T03:56:46.091Z,0.55
2023-11-25T03:59:14.099Z,0.62
2023-11-25T04:01:42.974Z,0.55
2023-11-25T04:04:12.856Z,0.50
2023-11-25T04:06:42.199Z,1.17
2023-11-25T04:09:10.897Z,0.40
2023-11-25T04:11:42.758Z,0.30
2023-11-25T04:14:10.778Z,0.37
2023-11-25T04:16:39.566Z,0.57
2023-11-25T04:19:10.261Z,0.35
2023-11-25T04:21:41.018Z,0.90
2023-11-25T04:24:12.279Z,0.70
2023-11-25T04:26:41.941Z,0.40
2023-11-25T04:29:10.918Z,0.50
2023-11-25T04:31:38.955Z,0.73
2023-11-25T04:34:07.241Z,0.30
2023-11-25T04:36:36.315Z,0.47
2023-11-25T04:39:05.612Z,0.93
2023-11-25T04:41:35.610Z,0.32
2023-11-25T04:44:03.638Z,0.70
2023-11-25T04:46:31.649Z,0.47
2023-11-25T04:48:59.983Z,0.22
2023-11-25T04:51:29.801Z,0.60
2023-11-25T04:53:58.283Z,0.20
2023-11-25T04:56:26.709Z,0.62
2023-11-25T04:58:56.097Z,0.55
2023-11-25T05:01:24.184Z,0.30
2023-11-25T05:03:52.518Z,0.95
2023-11-25T05:06:20.661Z,0.40
2023-11-25T05:08:48.629Z,0.40
2023-11-25T05:11:17.520Z,0.37
2023-11-25T05:13:46.305Z,0.45
2023-11-25T05:16:15.710Z,0.95
2023-11-25T05:18:44.719Z,0.47
2023-11-25T05:21:12.846Z,0.40
2023-11-25T05:23:40.927Z,0.30
2023-11-25T05:26:10.573Z,0.77
2023-11-25T05:28:38.570Z,0.57
2023-11-25T05:31:06.760Z,0.40
2023-11-25T05:33:36.358Z,0.20
2023-11-25T05:36:04.808Z,0.32
2023-11-25T05:38:32.848Z,0.55
2023-11-25T05:41:01.084Z,0.30
2023-11-25T05:43:29.057Z,0.75
2023-11-25T05:45:59.475Z,0.30
2023-11-25T05:48:28.425Z,0.68
2023-11-25T05:50:57.908Z,0.85
2023-11-25T05:53:25.926Z,0.50
2023-11-25T05:55:55.037Z,0.52
2023-11-25T05:58:23.034Z,0.77
2023-11-25T06:00:51.033Z,0.25
2023-11-25T06:03:19.294Z,1.05
2023-11-25T06:05:47.247Z,0.52
2023-11-25T06:08:16.561Z,0.43
2023-11-25T06:10:48.386Z,0.20
2023-11-25T06:13:16.695Z,0.20
2023-11-25T06:15:45.243Z,0.13
2023-11-25T06:18:14.771Z,0.65
2023-11-25T06:20:42.854Z,0.28
2023-11-25T06:23:11.171Z,0.50
2023-11-25T06:25:44.096Z,0.40
2023-11-25T06:28:15.438Z,0.60
2023-11-25T06:30:44.484Z,0.50
2023-11-25T06:33:12.861Z,0.60
2023-11-25T06:35:40.994Z,0.25
2023-11-25T06:38:11.211Z,0.30
2023-11-25T06:40:41.764Z,0.35
2023-11-25T06:43:14.312Z,0.10
2023-11-25T06:45:45.205Z,0.20
2023-11-25T06:48:13.272Z,0.55
2023-11-25T06:50:44.510Z,0.62
2023-11-25T06:53:12.979Z,0.93
2023-11-25T06:55:43.741Z,0.70
2023-11-25T06:58:12.537Z,0.50
2023-11-25T07:00:41.039Z,0.52
2023-11-25T07:03:10.684Z,0.55
2023-11-25T07:05:39.151Z,0.40
2023-11-25T07:08:07.428Z,0.40
2023-11-25T07:10:37.034Z,0.55
2023-11-25T07:13:07.324Z,0.40
2023-11-25T07:15:36.663Z,0.30
2023-11-25T07:18:08.024Z,0.68
2023-11-25T07:20:36.858Z,0.55
2023-11-25T07:23:04.877Z,0.65
2023-11-25T07:25:33.721Z,0.20
2023-11-25T07:28:02.034Z,0.20
2023-11-25T07:30:32.108Z,0.93
2023-11-25T07:33:00.145Z,0.35
2023-11-25T07:35:28.504Z,1.05
2023-11-25T07:37:56.542Z,0.50
2023-11-25T07:40:29.082Z,0.20
2023-11-25T07:43:09.608Z,0.40
2023-11-25T07:45:38.955Z,0.60
2023-11-25T07:48:07.321Z,0.32
2023-11-25T07:50:35.291Z,0.35
2023-11-25T07:53:06.620Z,0.60
2023-11-25T07:55:35.140Z,0.50
2023-11-25T07:58:03.354Z,0.47
2023-11-25T08:00:32.794Z,0.47
2023-11-25T08:03:03.705Z,0.57
2023-11-25T08:05:32.997Z,0.52
2023-11-25T08:08:01.431Z,0.35
2023-11-25T08:10:35.151Z,0.30
2023-11-25T08:13:04.298Z,0.52
2023-11-25T08:15:33.181Z,0.70
2023-11-25T08:18:02.980Z,0.77
2023-11-25T08:20:33.443Z,0.40
2023-11-25T08:23:01.939Z,0.47
2023-11-25T08:25:31.835Z,0.60
2023-11-25T08:28:00.317Z,0.70
2023-11-25T08:30:29.250Z,0.80
2023-11-25T08:32:57.807Z,0.40
2023-11-25T08:35:27.676Z,0.40
2023-11-25T08:38:10.362Z,1.00
2023-11-25T08:43:13.299Z,1.23
2023-11-25T08:45:46.896Z,0.85
2023-11-25T08:48:18.390Z,0.77
2023-11-25T08:50:48.106Z,0.52
2023-11-25T08:53:17.457Z,0.90
2023-11-25T08:55:45.774Z,0.70
2023-11-25T08:58:14.862Z,0.60
2023-11-25T09:00:43.454Z,0.85
2023-11-25T09:03:12.238Z,0.90
2023-11-25T09:05:41.993Z,0.70
2023-11-25T09:08:11.775Z,1.35
2023-11-25T09:10:40.155Z,0.90
2023-11-25T09:13:11.979Z,1.27
2023-11-25T09:15:42.141Z,1.10
2023-11-25T09:18:11.581Z,1.67
2023-11-25T09:20:40.153Z,1.58
2023-11-25T09:23:08.380Z,1.10
2023-11-25T09:25:38.317Z,1.50
2023-11-25T09:28:09.506Z,1.52
2023-11-25T09:30:37.974Z,1.25
2023-11-25T09:33:06.031Z,1.50
2023-11-25T09:35:34.064Z,0.90
2023-11-25T09:38:03.185Z,1.00
2023-11-25T09:40:31.684Z,0.85
2023-11-25T09:43:01.477Z,0.73
2023-11-25T09:45:33.290Z,1.67
2023-11-25T09:48:04.613Z,0.90
2023-11-25T09:50:35.962Z,1.30
2023-11-25T09:53:12.103Z,1.35
2023-11-25T09:55:42.644Z,0.88
2023-11-25T09:58:18.971Z,0.98
2023-11-25T10:00:51.514Z,0.82
2023-11-25T10:03:23.008Z,0.90
2023-11-25T10:05:51.084Z,1.73
2023-11-25T10:08:19.473Z,1.02
2023-11-25T10:11:00.331Z,1.50
2023-11-25T10:13:35.086Z,1.45
2023-11-25T10:16:03.517Z,1.30
2023-11-25T10:18:32.045Z,0.98
2023-11-25T10:21:00.634Z,1.17
2023-11-25T10:23:29.338Z,1.45
2023-11-25T10:26:00.079Z,1.23
2023-11-25T10:28:29.112Z,1.02
2023-11-25T10:31:00.826Z,1.23
2023-11-25T10:33:29.391Z,1.12
2023-11-25T10:35:59.213Z,1.42
2023-11-25T10:38:29.437Z,1.37
2023-11-25T10:41:02.610Z,1.60
2023-11-25T10:43:32.283Z,0.70
2023-11-25T10:46:09.463Z,1.42
2023-11-25T10:48:40.148Z,1.45
2023-11-25T10:51:09.554Z,0.88
2023-11-25T10:53:40.541Z,0.70
2023-11-25T10:56:09.531Z,1.17
2023-11-25T10:58:38.100Z,1.25
2023-11-25T11:01:08.655Z,1.48
2023-11-25T11:03:55.691Z,1.02
2023-11-25T11:06:30.183Z,1.25
2023-11-25T11:09:05.594Z,1.00
2023-11-25T11:11:47.330Z,1.50
2023-11-25T11:14:18.651Z,1.42
2023-11-25T11:16:56.069Z,1.10
2023-11-25T11:19:35.257Z,1.73
2023-11-25T11:22:07.605Z,1.25
2023-11-25T11:24:48.679Z,1.35
2023-11-25T11:27:25.390Z,1.10
2023-11-25T11:29:59.769Z,0.98
2023-11-25T11:32:35.988Z,2.28
2023-11-25T11:35:04.709Z,1.20
2023-11-25T11:37:38.926Z,1.17
2023-11-25T11:40:08.488Z,0.80
2023-11-25T11:42:40.567Z,1.08
2023-11-25T11:45:27.414Z,0.75
2023-11-25T11:48:04.116Z,0.88
2023-11-25T11:50:36.525Z,1.40
2023-11-25T11:53:15.301Z,0.70
2023-11-25T11:55:53.712Z,1.15
2023-11-25T11:58:23.808Z,0.80
2023-11-25T12:00:56.500Z,1.02
2023-11-25T12:03:26.193Z,0.82
2023-11-25T12:05:54.492Z,1.52
2023-11-25T12:08:23.364Z,1.70
2023-11-25T12:10:52.689Z,1.35
2023-11-25T12:13:30.949Z,1.60
2023-11-25T12:16:01.835Z,0.70
2023-11-25T12:18:32.242Z,1.62
2023-11-25T12:21:02.364Z,1.60
2023-11-25T12:23:41.791Z,1.37
2023-11-25T12:26:22.363Z,1.08
2023-11-25T12:28:50.345Z,1.75
2023-11-25T12:31:18.741Z,1.05
2023-11-25T12:33:49.300Z,1.23
2023-11-25T12:36:18.024Z,1.42
2023-11-25T12:38:46.437Z,1.65
2023-11-25T12:41:16.357Z,1.30
2023-11-25T12:44:04.303Z,1.05
2023-11-25T12:46:32.926Z,0.73
2023-11-25T12:49:19.290Z,0.90
2023-11-25T12:51:48.282Z,0.80
2023-11-25T12:54:16.593Z,0.80
2023-11-25T12:56:44.921Z,0.90
2023-11-25T12:59:13.679Z,0.60
2023-11-25T13:01:41.871Z,0.60
2023-11-25T13:04:11.295Z,0.80
2023-11-25T13:06:49.836Z,0.70
2023-11-25T13:09:21.105Z,0.90
2023-11-25T13:11:49.788Z,0.90
2023-11-25T13:14:18.294Z,0.70
2023-11-25T13:16:46.811Z,0.90
2023-11-25T13:19:16.630Z,0.70
2023-11-25T13:21:45.015Z,0.68
2023-11-25T13:24:12.960Z,0.60
2023-11-25T13:26:41.248Z,0.68
2023-11-25T13:29:09.674Z,0.43
2023-11-25T13:31:41.340Z,0.70
2023-11-25T13:34:12.562Z,0.90
2023-11-25T13:36:43.160Z,0.73
2023-11-25T13:39:15.595Z,0.85
2023-11-25T13:41:45.745Z,0.80
2023-11-25T13:44:14.383Z,0.60
2023-11-25T13:46:42.975Z,1.02
2023-11-25T13:49:11.181Z,0.60
2023-11-25T13:51:39.413Z,0.77
2023-11-25T13:54:10.752Z,0.82
2023-11-25T13:56:38.710Z,0.90
2023-11-25T13:59:08.327Z,0.55
2023-11-25T14:01:36.953Z,0.60
2023-11-25T14:04:07.709Z,0.80
2023-11-25T14:06:35.923Z,0.75
2023-11-25T14:09:04.457Z,1.17
2023-11-25T14:11:34.554Z,0.68
2023-11-25T14:14:06.959Z,0.60
2023-11-25T14:16:35.450Z,0.73
2023-11-25T14:19:04.979Z,0.65
2023-11-25T14:21:32.971Z,0.57
2023-11-25T14:24:01.565Z,0.95
2023-11-25T14:26:29.928Z,0.70
2023-11-25T14:28:59.389Z,0.60
2023-11-25T14:31:27.716Z,0.80
2023-11-25T14:33:56.573Z,0.95
2023-11-25T14:36:24.561Z,0.90
2023-11-25T14:38:53.306Z,1.23
2023-11-25T14:41:25.832Z,0.85
2023-11-25T14:43:54.667Z,0.68
2023-11-25T14:46:24.225Z,0.73
2023-11-25T14:48:52.209Z,1.02
2023-11-25T14:51:20.460Z,0.90
2023-11-25T14:53:50.611Z,0.98
2023-11-25T14:56:18.700Z,1.25
2023-11-25T14:58:47.644Z,1.23
2023-11-25T15:01:15.676Z,0.90
2023-11-25T15:03:45.101Z,0.70
2023-11-25T15:06:13.355Z,1.23
2023-11-25T15:08:43.665Z,1.30
2023-11-25T15:11:11.701Z,1.37
2023-11-25T15:13:39.979Z,1.10
2023-11-25T15:16:08.257Z,1.05
2023-11-25T15:18:37.239Z,1.10
2023-11-25T15:21:08.710Z,1.25
2023-11-25T15:23:37.586Z,0.62
2023-11-25T15:26:07.569Z,1.00
2023-11-25T15:28:35.862Z,1.08
2023-11-25T15:31:04.038Z,0.77
2023-11-25T15:33:32.381Z,1.10
2023-11-25T15:36:00.380Z,0.98
2023-11-25T15:38:29.749Z,1.10
2023-11-25T15:40:58.191Z,1.05
2023-11-25T15:43:26.746Z,1.27
2023-11-25T15:45:54.917Z,1.15
2023-11-25T15:48:24.132Z,1.48
2023-11-25T15:50:52.267Z,1.17
2023-11-25T15:53:20.577Z,0.80
2023-11-25T15:55:50.243Z,0.88
2023-11-25T15:58:19.401Z,0.22
2023-11-25T16:00:48.012Z,0.40
2023-11-25T16:03:16.322Z,0.30
2023-11-25T16:05:45.272Z,0.40
2023-11-25T16:08:13.399Z,0.57
2023-11-25T16:10:41.875Z,0.55
2023-11-25T16:13:11.397Z,0.47
2023-11-25T16:15:39.656Z,0.50
2023-11-25T16:18:08.355Z,0.47
2023-11-25T16:20:41.489Z,0.43
2023-11-25T16:23:09.895Z,0.57
2023-11-25T16:25:38.485Z,0.40
2023-11-25T16:28:07.868Z,0.88
2023-11-25T16:30:37.924Z,0.60
2023-11-25T16:33:07.862Z,0.70
2023-11-25T16:35:38.008Z,0.70
2023-11-25T16:38:08.109Z,0.60
2023-11-25T16:40:38.774Z,0.90
2023-11-25T16:43:06.786Z,0.50
2023-11-25T16:45:34.898Z,0.50
2023-11-25T16:48:05.708Z,0.73
2023-11-25T16:50:38.815Z,0.80
2023-11-25T16:53:08.599Z,0.50
2023-11-25T16:55:37.635Z,1.00
2023-11-25T16:58:05.672Z,0.88
2023-11-25T17:00:35.007Z,1.10
2023-11-25T17:03:05.311Z,0.95
2023-11-25T17:05:33.764Z,1.02
2023-11-25T17:08:01.954Z,0.62
2023-11-25T17:10:31.887Z,1.45
2023-11-25T17:13:00.378Z,0.75
2023-11-25T17:15:28.312Z,1.48
2023-11-25T17:17:56.396Z,1.08
2023-11-25T17:20:26.138Z,1.17
2023-11-25T17:22:54.801Z,0.80
2023-11-25T17:25:23.913Z,1.00
2023-11-25T17:27:52.257Z,1.30
2023-11-25T17:30:20.318Z,1.70
2023-11-25T17:32:48.627Z,0.93
2023-11-25T17:35:18.684Z,0.90
2023-11-25T17:37:48.666Z,1.15
2023-11-25T17:40:17.157Z,0.80
2023-11-25T17:42:46.118Z,0.80
2023-11-25T17:45:17.418Z,1.02
2023-11-25T17:47:45.900Z,1.87
2023-11-25T17:50:14.157Z,0.57
2023-11-25T17:52:42.566Z,1.10
2023-11-25T17:55:12.356Z,0.90
2023-11-25T17:57:40.423Z,0.90
2023-11-25T18:00:11.880Z,1.23
2023-11-25T18:02:40.279Z,1.02
2023-11-25T18:05:10.765Z,1.10
2023-11-25T18:07:44.912Z,0.93
2023-11-25T18:10:14.698Z,1.00
2023-11-25T18:12:43.039Z,1.20
2023-11-25T18:15:11.650Z,0.93
2023-11-25T18:17:42.112Z,0.90
2023-11-25T18:20:12.239Z,1.12
2023-11-25T18:22:40.686Z,0.95
2023-11-25T18:25:10.227Z,1.30
2023-11-25T18:27:39.959Z,1.42
2023-11-25T18:30:09.253Z,1.42
2023-11-25T18:32:37.565Z,1.40
2023-11-25T18:35:06.546Z,1.35
2023-11-25T18:37:34.874Z,1.70
2023-11-25T18:40:03.178Z,1.48
2023-11-25T18:42:32.309Z,2.30
2023-11-25T18:45:01.964Z,1.90
2023-11-25T18:47:30.230Z,1.15
2023-11-25T18:49:58.777Z,1.10
2023-11-25T18:52:27.583Z,1.40
2023-11-25T18:54:55.595Z,1.58
2023-11-25T18:57:24.375Z,1.60
2023-11-25T18:59:53.387Z,1.00
2023-11-25T19:02:22.835Z,1.12
2023-11-25T19:04:50.885Z,1.15
2023-11-25T19:07:19.109Z,1.02
2023-11-25T19:09:47.348Z,1.15
2023-11-25T19:12:15.337Z,0.85
2023-11-25T19:14:43.642Z,0.68
2023-11-25T19:17:11.707Z,0.50
2023-11-25T19:19:41.092Z,0.62
2023-11-25T19:22:11.945Z,0.30
2023-11-25T19:24:40.198Z,0.62
2023-11-25T19:27:08.196Z,0.75
2023-11-25T19:29:42.267Z,0.32
2023-11-25T19:32:10.644Z,0.73
2023-11-25T19:34:39.206Z,0.45
2023-11-25T19:37:09.261Z,0.73
2023-11-25T19:39:42.369Z,0.75
2023-11-25T19:42:10.656Z,0.90
2023-11-25T19:44:38.626Z,0.82
2023-11-25T19:47:06.831Z,1.08
2023-11-25T19:49:35.707Z,1.00
2023-11-25T19:52:04.625Z,0.68
2023-11-25T19:54:34.698Z,0.68
2023-11-25T19:57:03.012Z,1.35
2023-11-25T19:59:31.335Z,0.90
2023-11-25T20:01:59.497Z,1.10
2023-11-25T20:04:30.481Z,0.82
2023-11-25T20:07:00.158Z,0.88
2023-11-25T20:09:28.458Z,0.98
2023-11-25T20:11:59.293Z,1.15
2023-11-25T20:14:28.500Z,0.70
2023-11-25T20:16:58.197Z,1.33
2023-11-25T20:19:28.803Z,0.93
2023-11-25T20:21:57.483Z,0.70
2023-11-25T20:24:25.852Z,1.17
2023-11-25T20:26:54.776Z,1.05
2023-11-25T20:29:24.323Z,1.05
2023-11-25T20:31:54.966Z,0.77
2023-11-25T20:34:24.965Z,0.65
2023-11-25T20:36:53.055Z,1.87
2023-11-25T20:39:21.019Z,1.55
2023-11-25T20:41:49.302Z,1.17
2023-11-25T20:44:17.541Z,0.70
2023-11-25T20:46:46.972Z,1.12
2023-11-25T20:49:15.320Z,1.12
2023-11-25T20:51:44.612Z,1.20
2023-11-25T20:54:12.711Z,1.30
2023-11-25T20:56:40.929Z,0.80
2023-11-25T20:59:09.146Z,1.17
2023-11-25T21:01:37.142Z,0.50
2023-11-25T21:04:07.163Z,1.27
2023-11-25T21:06:35.896Z,0.93
2023-11-25T21:09:04.153Z,0.65
2023-11-25T21:11:33.616Z,0.60
2023-11-25T21:14:01.661Z,0.80
2023-11-25T21:16:29.625Z,1.02
2023-11-25T21:18:58.820Z,0.68
2023-11-25T21:21:28.137Z,0.90
2023-11-25T21:23:56.136Z,1.12
2023-11-25T21:26:24.399Z,0.60
2023-11-25T21:28:53.445Z,0.68
2023-11-25T21:31:21.537Z,0.52
2023-11-25T21:33:49.901Z,0.77
2023-11-25T21:36:17.876Z,0.90
2023-11-25T21:38:47.261Z,0.77
2023-11-25T21:41:15.691Z,0.60
2023-11-25T21:43:44.068Z,0.50
2023-11-25T21:46:12.045Z,0.90
2023-11-25T21:48:41.035Z,0.43
2023-11-25T21:51:09.838Z,1.00
2023-11-25T21:53:37.880Z,0.45
2023-11-25T21:56:08.423Z,0.70
2023-11-25T21:58:36.439Z,0.68
2023-11-25T22:01:05.253Z,0.60
2023-11-25T22:03:35.578Z,0.75
2023-11-25T22:06:05.026Z,1.00
2023-11-25T22:08:33.358Z,0.43
2023-11-25T22:11:01.457Z,0.55
2023-11-25T22:13:31.036Z,0.43
2023-11-25T22:15:59.344Z,0.65
2023-11-25T22:18:27.381Z,0.70
2023-11-25T22:20:55.352Z,1.05
2023-11-25T22:23:23.726Z,0.95
2023-11-25T22:26:05.043Z,0.93
2023-11-25T22:28:34.810Z,0.73
2023-11-25T22:31:02.770Z,0.37
2023-11-25T22:33:30.994Z,0.60
2023-11-25T22:35:59.586Z,0.65
2023-11-25T22:38:28.300Z,0.82
2023-11-25T22:40:56.742Z,0.90
2023-11-25T22:43:25.309Z,0.88
2023-11-25T22:45:54.731Z,0.50
2023-11-25T22:48:22.771Z,1.62
2023-11-25T22:50:50.945Z,1.77
2023-11-25T22:53:19.072Z,1.77
2023-11-25T22:55:47.181Z,1.30
2023-11-25T22:58:15.463Z,1.40
2023-11-25T23:00:50.547Z,1.17
2023-11-25T23:03:21.798Z,1.20
2023-11-25T23:05:50.251Z,0.60
2023-11-25T23:08:21.025Z,0.57
2023-11-25T23:10:49.180Z,1.12
2023-11-25T23:13:17.263Z,0.70
2023-11-25T23:15:45.598Z,0.37
2023-11-25T23:18:13.589Z,0.93
2023-11-25T23:20:42.961Z,0.47
2023-11-25T23:23:12.827Z,0.40
2023-11-25T23:25:40.832Z,0.45
2023-11-25T23:28:11.572Z,0.37
2023-11-25T23:30:41.697Z,0.70
2023-11-25T23:33:09.734Z,0.40
2023-11-25T23:35:38.128Z,0.40
2023-11-25T23:38:08.192Z,0.28
2023-11-25T23:40:36.202Z,0.35
2023-11-25T23:43:04.401Z,0.60
2023-11-25T23:45:32.812Z,0.57
2023-11-25T23:48:00.799Z,0.20
2023-11-25T23:50:28.897Z,0.55
2023-11-25T23:52:57.545Z,0.30
2023-11-25T23:55:26.937Z,0.70
2023-11-25T23:57:54.975Z,0.47
